createdAt,value
2023-03-16T00:02:06.483Z,36.30
2023-03-16T00:04:37.972Z,37.80
2023-03-16T00:07:07.036Z,37.50
2023-03-16T00:09:34.047Z,38.20
2023-03-16T00:12:04.860Z,37.00
2023-03-16T00:14:35.793Z,38.00
2023-03-16T00:17:06.350Z,35.90
2023-03-16T00:19:35.343Z,36.30
2023-03-16T00:22:02.551Z,40.60
2023-03-16T00:24:29.427Z,47.00
2023-03-16T00:26:56.492Z,42.30
2023-03-16T00:29:23.396Z,40.40
2023-03-16T00:31:50.330Z,39.30
2023-03-16T00:34:17.894Z,41.80
2023-03-16T00:36:44.707Z,40.80
2023-03-16T00:39:12.091Z,39.50
2023-03-16T00:41:39.774Z,42.00
2023-03-16T00:44:09.582Z,38.90
2023-03-16T00:49:03.339Z,44.50
2023-03-16T00:51:34.032Z,47.80
2023-03-16T00:54:00.895Z,45.60
2023-03-16T00:56:27.718Z,54.00
2023-03-16T00:58:57.981Z,50.90
2023-03-16T01:01:25.283Z,46.90
2023-03-16T01:03:52.324Z,49.20
2023-03-16T01:06:20.858Z,48.50
2023-03-16T01:08:48.660Z,52.10
2023-03-16T01:11:18.689Z,100.30
2023-03-16T01:13:50.157Z,98.00
2023-03-16T01:16:23.543Z,78.80
2023-03-16T01:18:52.623Z,48.70
2023-03-16T01:21:22.350Z,38.40
2023-03-16T01:23:50.341Z,37.90
2023-03-16T01:26:19.001Z,33.50
2023-03-16T01:28:48.106Z,35.00
2023-03-16T01:31:15.811Z,38.80
2023-03-16T01:33:45.002Z,30.50
2023-03-16T01:36:17.971Z,33.90
2023-03-16T01:39:06.891Z,30.10
2023-03-16T01:41:42.035Z,31.30
2023-03-16T01:44:20.216Z,37.10
2023-03-16T01:46:47.223Z,31.30
2023-03-16T01:49:36.543Z,37.10
2023-03-16T01:52:10.482Z,45.10
2023-03-16T01:54:57.357Z,40.10
2023-03-16T01:57:30.681Z,64.50
2023-03-16T02:00:10.003Z,44.10
2023-03-16T02:02:48.709Z,49.30
2023-03-16T02:05:23.628Z,36.40
2023-03-16T02:07:58.693Z,33.10
2023-03-16T02:10:28.659Z,34.00
2023-03-16T02:12:56.283Z,30.20
2023-03-16T02:18:25.280Z,37.20
2023-03-16T02:21:05.391Z,58.40
2023-03-16T02:23:32.743Z,47.30
2023-03-16T02:26:26.187Z,29.80
2023-03-16T02:29:23.376Z,31.30
2023-03-16T02:31:50.497Z,28.40
2023-03-16T02:34:18.289Z,64.60
2023-03-16T02:36:48.690Z,59.10
2023-03-16T02:39:16.175Z,44.40
2023-03-16T02:41:46.975Z,43.40
2023-03-16T02:44:18.083Z,40.40
2023-03-16T02:46:46.943Z,37.10
2023-03-16T02:49:21.857Z,39.80
2023-03-16T02:51:48.760Z,42.10
2023-03-16T02:54:15.907Z,41.40
2023-03-16T02:56:42.840Z,39.60
2023-03-16T02:59:10.081Z,41.10
2023-03-16T03:01:37.180Z,42.40
2023-03-16T03:04:05.497Z,44.20
2023-03-16T03:06:32.988Z,40.60
2023-03-16T03:09:02.194Z,35.80
2023-03-16T03:11:29.617Z,43.70
2023-03-16T03:13:56.776Z,42.90
2023-03-16T03:16:25.762Z,44.60
2023-03-16T03:18:54.076Z,45.50
2023-03-16T03:21:21.438Z,44.20
2023-03-16T03:23:48.354Z,42.40
2023-03-16T03:26:16.498Z,39.00
2023-03-16T03:28:44.866Z,38.40
2023-03-16T03:31:21.921Z,42.50
2023-03-16T03:33:49.406Z,44.10
2023-03-16T03:36:16.328Z,44.20
2023-03-16T03:38:44.490Z,47.40
2023-03-16T03:41:12.908Z,48.40
2023-03-16T03:43:39.890Z,48.20
2023-03-16T03:46:08.636Z,45.80
2023-03-16T03:48:35.569Z,47.00
2023-03-16T03:51:02.553Z,45.80
2023-03-16T03:53:38.682Z,44.10
2023-03-16T03:56:21.856Z,44.30
2023-03-16T03:58:52.505Z,45.80
2023-03-16T04:01:27.070Z,48.70
2023-03-16T04:03:54.054Z,49.70
2023-03-16T04:06:20.944Z,49.10
2023-03-16T04:08:47.958Z,49.70
2023-03-16T04:11:17.022Z,52.80
2023-03-16T04:13:44.166Z,47.80
2023-03-16T04:16:11.332Z,49.20
2023-03-16T04:18:43.104Z,115.40
2023-03-16T04:21:16.029Z,57.10
2023-03-16T04:23:44.571Z,225.60
2023-03-16T04:26:11.914Z,118.40
2023-03-16T04:28:40.345Z,133.60
2023-03-16T04:31:10.789Z,72.50
2023-03-16T04:33:42.513Z,80.40
2023-03-16T04:36:09.759Z,58.80
2023-03-16T04:38:37.674Z,65.40
2023-03-16T04:41:05.989Z,152.60
2023-03-16T04:43:35.565Z,115.90
2023-03-16T04:46:08.163Z,104.10
2023-03-16T04:48:36.630Z,89.70
2023-03-16T04:51:06.359Z,70.20
2023-03-16T04:53:35.668Z,86.80
2023-03-16T04:56:08.692Z,80.10
2023-03-16T04:58:35.992Z,61.00
2023-03-16T05:01:03.626Z,57.20
2023-03-16T05:03:31.281Z,56.30
2023-03-16T05:05:58.442Z,54.70
2023-03-16T05:08:26.034Z,53.40
2023-03-16T05:10:57.526Z,53.80
2023-03-16T05:13:25.258Z,52.30
2023-03-16T05:15:54.084Z,50.40
2023-03-16T05:18:28.277Z,59.50
2023-03-16T05:20:56.453Z,60.10
2023-03-16T05:23:24.864Z,55.10
2023-03-16T05:25:59.937Z,55.00
2023-03-16T05:28:27.665Z,58.40
2023-03-16T05:30:59.836Z,85.40
2023-03-16T05:33:27.403Z,99.30
2023-03-16T05:36:03.201Z,65.90
2023-03-16T05:38:32.143Z,73.00
2023-03-16T05:41:03.975Z,68.50
2023-03-16T05:43:46.716Z,64.30
2023-03-16T05:46:16.006Z,60.80
2023-03-16T05:48:42.995Z,53.10
2023-03-16T05:51:14.283Z,61.00
2023-03-16T05:56:15.233Z,50.70
2023-03-16T05:58:43.193Z,48.20
2023-03-16T06:01:11.369Z,48.50
2023-03-16T06:03:38.505Z,42.00
2023-03-16T06:06:07.342Z,39.60
2023-03-16T06:08:39.152Z,37.50
2023-03-16T06:11:08.983Z,36.20
2023-03-16T06:13:36.381Z,32.70
2023-03-16T06:16:04.086Z,28.80
2023-03-16T06:18:31.255Z,28.90
2023-03-16T06:20:58.916Z,27.30
2023-03-16T06:23:25.864Z,26.30
2023-03-16T06:25:56.317Z,25.10
2023-03-16T06:28:24.429Z,23.10
2023-03-16T06:30:56.040Z,24.70
2023-03-16T06:33:24.483Z,23.20
2023-03-16T06:35:51.668Z,22.10
2023-03-16T06:38:26.968Z,22.70
2023-03-16T06:41:19.900Z,20.70
2023-03-16T06:43:47.219Z,21.90
2023-03-16T06:46:14.239Z,21.30
2023-03-16T06:48:42.154Z,20.10
2023-03-16T06:51:09.594Z,21.70
2023-03-16T06:53:36.825Z,23.60
2023-03-16T06:56:03.973Z,21.60
2023-03-16T06:58:33.166Z,20.10
2023-03-16T07:01:03.793Z,20.60
2023-03-16T07:03:31.546Z,19.70
2023-03-16T07:06:02.551Z,17.30
2023-03-16T07:08:29.437Z,18.00
2023-03-16T07:10:56.395Z,15.60
2023-03-16T07:13:23.907Z,13.20
2023-03-16T07:15:52.383Z,12.80
2023-03-16T07:18:20.370Z,12.20
2023-03-16T07:20:47.833Z,11.80
2023-03-16T07:23:15.716Z,12.10
2023-03-16T07:25:44.832Z,12.90
2023-03-16T07:28:13.083Z,10.80
2023-03-16T07:30:53.235Z,10.80
2023-03-16T07:33:28.033Z,10.30
2023-03-16T07:35:55.142Z,13.60
2023-03-16T07:38:22.054Z,16.40
2023-03-16T07:40:49.977Z,12.50
2023-03-16T07:43:20.429Z,11.30
2023-03-16T07:45:51.709Z,9.10
2023-03-16T07:48:19.874Z,9.90
2023-03-16T07:50:51.141Z,11.60
2023-03-16T07:53:18.433Z,10.70
2023-03-16T07:55:49.526Z,11.30
2023-03-16T07:58:17.071Z,10.00
2023-03-16T08:00:43.968Z,10.50
2023-03-16T08:03:10.930Z,11.10
2023-03-16T08:05:38.234Z,10.40
2023-03-16T08:08:12.322Z,9.70
2023-03-16T08:10:39.318Z,8.90
2023-03-16T08:13:10.674Z,9.10
2023-03-16T08:15:40.577Z,9.30
2023-03-16T08:18:12.697Z,7.40
2023-03-16T08:20:40.161Z,7.70
2023-03-16T08:23:08.423Z,8.40
2023-03-16T08:25:38.163Z,8.20
2023-03-16T08:28:09.574Z,7.80
2023-03-16T08:30:36.774Z,6.50
2023-03-16T08:33:23.442Z,7.20
2023-03-16T08:35:51.335Z,9.20
2023-03-16T08:38:19.424Z,8.70
2023-03-16T08:40:49.996Z,7.90
2023-03-16T08:43:19.562Z,8.40
2023-03-16T08:45:47.140Z,7.60
2023-03-16T08:48:15.310Z,6.90
2023-03-16T08:50:44.791Z,5.30
2023-03-16T08:53:14.174Z,4.40
2023-03-16T08:55:44.200Z,3.80
2023-03-16T08:58:13.664Z,4.20
2023-03-16T09:00:41.679Z,3.40
2023-03-16T09:03:08.596Z,3.80
2023-03-16T09:05:38.454Z,4.80
2023-03-16T09:08:06.383Z,4.00
2023-03-16T09:10:33.863Z,4.50
2023-03-16T09:13:00.777Z,5.40
2023-03-16T09:15:29.306Z,3.90
2023-03-16T09:17:57.628Z,3.30
2023-03-16T09:20:29.493Z,4.20
2023-03-16T09:22:59.204Z,4.10
2023-03-16T09:25:26.493Z,7.60
2023-03-16T09:27:54.055Z,4.50
2023-03-16T09:30:21.066Z,4.00
2023-03-16T09:32:49.152Z,5.00
2023-03-16T09:35:16.227Z,14.30
2023-03-16T09:37:45.952Z,6.80
2023-03-16T09:40:29.256Z,8.20
2023-03-16T09:43:02.146Z,4.10
2023-03-16T09:45:42.112Z,4.70
2023-03-16T09:48:11.446Z,4.80
2023-03-16T09:50:48.916Z,5.30
2023-03-16T09:53:29.512Z,5.70
2023-03-16T09:56:04.458Z,5.60
2023-03-16T09:58:34.713Z,4.70
2023-03-16T10:01:13.539Z,4.30
2023-03-16T10:04:35.818Z,3.80
2023-03-16T10:07:22.337Z,4.30
2023-03-16T10:10:18.574Z,4.30
2023-03-16T10:12:50.588Z,4.50
2023-03-16T10:15:22.763Z,4.30
2023-03-16T10:17:57.098Z,5.30
2023-03-16T10:20:25.092Z,5.90
2023-03-16T10:22:53.196Z,5.30
2023-03-16T10:25:35.595Z,5.80
2023-03-16T10:28:02.803Z,4.50
2023-03-16T10:30:34.394Z,4.40
2023-03-16T10:33:05.649Z,4.00
2023-03-16T10:35:49.020Z,5.50
2023-03-16T10:38:40.693Z,3.80
2023-03-16T10:41:25.764Z,4.10
2023-03-16T10:44:06.284Z,4.80
2023-03-16T10:47:00.496Z,5.40
2023-03-16T10:49:42.185Z,3.10
2023-03-16T10:52:20.303Z,3.00
2023-03-16T10:54:57.704Z,4.10
2023-03-16T10:57:34.049Z,4.80
2023-03-16T11:00:15.643Z,5.00
2023-03-16T11:02:43.336Z,3.90
2023-03-16T11:05:29.895Z,2.70
2023-03-16T11:08:09.671Z,3.10
2023-03-16T11:10:55.115Z,3.10
2023-03-16T11:13:28.221Z,3.50
2023-03-16T11:16:05.423Z,3.00
2023-03-16T11:18:44.664Z,4.10
2023-03-16T11:21:30.748Z,3.60
2023-03-16T11:24:00.359Z,2.80
2023-03-16T11:26:37.713Z,3.30
2023-03-16T11:29:13.481Z,3.90
2023-03-16T11:31:57.984Z,3.10
2023-03-16T11:34:30.794Z,3.10
2023-03-16T11:37:04.679Z,3.20
2023-03-16T11:39:50.661Z,4.40
2023-03-16T11:42:37.999Z,3.60
2023-03-16T11:45:25.066Z,3.40
2023-03-16T11:47:58.675Z,2.90
2023-03-16T11:50:33.164Z,3.90
2023-03-16T11:53:28.728Z,4.00
2023-03-16T11:56:20.776Z,3.30
2023-03-16T11:59:24.829Z,3.60
2023-03-16T12:02:03.095Z,3.70
2023-03-16T12:04:59.946Z,2.50
2023-03-16T12:07:59.375Z,3.50
2023-03-16T12:10:31.229Z,4.50
2023-03-16T12:13:27.831Z,4.50
2023-03-16T12:16:15.794Z,4.50
2023-03-16T12:18:48.813Z,4.10
2023-03-16T12:21:22.835Z,5.60
2023-03-16T12:23:52.641Z,6.30
2023-03-16T12:26:22.980Z,4.30
2023-03-16T12:28:54.470Z,4.70
2023-03-16T12:31:28.838Z,4.30
2023-03-16T12:34:13.968Z,4.80
2023-03-16T12:37:18.641Z,4.00
2023-03-16T12:40:19.759Z,3.90
2023-03-16T12:43:19.794Z,5.10
2023-03-16T12:46:14.921Z,4.80
2023-03-16T12:48:49.840Z,4.50
2023-03-16T12:51:19.636Z,5.30
2023-03-16T12:53:55.847Z,5.00
2023-03-16T12:56:33.240Z,4.50
2023-03-16T12:59:06.808Z,2.80
2023-03-16T13:01:44.498Z,2.90
2023-03-16T13:04:17.217Z,5.10
2023-03-16T13:06:50.871Z,5.40
2023-03-16T13:09:28.332Z,5.20
2023-03-16T13:11:57.281Z,4.80
2023-03-16T13:14:38.796Z,5.50
2023-03-16T13:17:39.029Z,4.90
2023-03-16T13:20:36.125Z,4.50
2023-03-16T13:23:26.694Z,4.90
2023-03-16T13:26:16.849Z,5.00
2023-03-16T13:28:52.485Z,6.60
2023-03-16T13:31:37.877Z,7.20
2023-03-16T13:34:13.832Z,6.80
2023-03-16T13:44:50.152Z,5.60
2023-03-16T13:47:32.152Z,6.10
2023-03-16T13:50:00.602Z,5.50
2023-03-16T13:52:35.439Z,5.70
2023-03-16T13:55:22.947Z,5.60
2023-03-16T13:57:59.318Z,5.10
2023-03-16T14:00:46.044Z,6.50
2023-03-16T14:06:18.894Z,4.90
2023-03-16T14:08:57.046Z,5.50
2023-03-16T14:11:28.732Z,5.30
2023-03-16T14:13:57.943Z,4.60
2023-03-16T14:16:28.637Z,3.90
2023-03-16T14:19:02.999Z,3.70
2023-03-16T14:21:34.413Z,3.70
2023-03-16T14:24:06.908Z,3.90
2023-03-16T14:26:48.286Z,4.40
2023-03-16T14:29:26.624Z,3.90
2023-03-16T14:31:54.920Z,4.40
2023-03-16T14:34:39.751Z,4.10
2023-03-16T14:37:07.757Z,4.50
2023-03-16T14:39:34.704Z,4.30
2023-03-16T14:42:05.631Z,4.70
2023-03-16T14:44:37.094Z,4.50
2023-03-16T14:47:06.304Z,4.90
2023-03-16T14:49:38.706Z,4.50
2023-03-16T14:52:15.565Z,5.40
2023-03-16T14:54:42.427Z,6.70
2023-03-16T14:57:17.330Z,5.90
2023-03-16T14:59:44.254Z,7.30
2023-03-16T15:02:23.419Z,8.90
2023-03-16T15:04:51.129Z,8.10
2023-03-16T15:07:30.732Z,8.20
2023-03-16T15:10:17.496Z,8.30
2023-03-16T15:12:50.842Z,6.70
2023-03-16T15:15:22.760Z,8.20
2023-03-16T15:17:52.120Z,8.30
2023-03-16T15:20:24.372Z,8.40
2023-03-16T15:22:53.157Z,7.50
2023-03-16T15:25:23.059Z,7.70
2023-03-16T15:27:51.309Z,7.60
2023-03-16T15:30:22.023Z,7.60
2023-03-16T15:32:48.924Z,8.20
2023-03-16T15:35:16.923Z,7.80
2023-03-16T15:37:44.289Z,7.70
2023-03-16T15:40:24.645Z,8.20
2023-03-16T15:42:52.500Z,6.80
2023-03-16T15:45:22.838Z,7.70
2023-03-16T15:47:51.547Z,5.00
2023-03-16T15:50:21.969Z,6.90
2023-03-16T15:53:00.493Z,7.40
2023-03-16T15:55:40.007Z,7.00
2023-03-16T15:58:10.854Z,10.10
2023-03-16T16:00:39.777Z,11.70
2023-03-16T16:03:07.517Z,6.80
2023-03-16T16:05:35.789Z,5.00
2023-03-16T16:08:02.982Z,6.00
2023-03-16T16:10:30.568Z,5.90
2023-03-16T16:12:59.354Z,5.10
2023-03-16T16:15:34.262Z,5.80
2023-03-16T16:18:21.000Z,5.90
2023-03-16T16:20:49.917Z,5.80
2023-03-16T16:23:18.283Z,6.50
2023-03-16T16:25:47.086Z,7.90
2023-03-16T16:28:17.856Z,8.70
2023-03-16T16:30:46.239Z,8.30
2023-03-16T16:33:33.547Z,6.40
2023-03-16T16:36:08.464Z,6.80
2023-03-16T16:38:35.715Z,6.40
2023-03-16T16:41:08.153Z,6.70
2023-03-16T16:43:41.814Z,9.90
2023-03-16T16:46:21.411Z,10.70
2023-03-16T16:48:51.244Z,8.60
2023-03-16T16:51:21.863Z,7.50
2023-03-16T16:53:50.576Z,7.90
2023-03-16T16:56:21.221Z,8.50
2023-03-16T16:58:48.104Z,8.10
2023-03-16T17:01:22.402Z,9.10
2023-03-16T17:03:49.345Z,9.40
2023-03-16T17:06:18.499Z,8.50
2023-03-16T17:08:46.960Z,10.00
2023-03-16T17:11:27.217Z,9.70
2023-03-16T17:13:57.065Z,11.00
2023-03-16T17:18:54.042Z,12.10
2023-03-16T17:21:24.004Z,12.00
2023-03-16T17:26:26.382Z,11.50
2023-03-16T17:28:59.449Z,11.90
2023-03-16T17:31:35.173Z,13.40
2023-03-16T17:34:09.279Z,13.70
2023-03-16T17:36:36.349Z,12.80
2023-03-16T17:39:03.465Z,13.70
2023-03-16T17:41:33.108Z,13.40
2023-03-16T17:46:31.161Z,14.20
2023-03-16T17:49:00.397Z,15.00
2023-03-16T17:51:28.082Z,27.10
2023-03-16T17:53:56.040Z,23.40
2023-03-16T17:56:27.106Z,23.90
2023-03-16T17:58:58.767Z,20.70
2023-03-16T18:01:34.712Z,24.00
2023-03-16T18:04:02.935Z,20.10
2023-03-16T18:06:31.742Z,38.50
2023-03-16T18:08:58.701Z,107.80
2023-03-16T18:11:34.521Z,84.00
2023-03-16T18:14:04.460Z,28.80
2023-03-16T18:19:04.217Z,18.90
2023-03-16T18:21:33.781Z,17.80
2023-03-16T18:24:00.746Z,20.00
2023-03-16T18:26:28.285Z,21.80
2023-03-16T18:28:55.739Z,25.80
2023-03-16T18:31:29.767Z,20.20
2023-03-16T18:33:59.890Z,31.20
2023-03-16T18:36:35.662Z,34.70
2023-03-16T18:39:06.348Z,153.30
2023-03-16T18:41:35.180Z,79.20
2023-03-16T18:44:18.839Z,385.30
2023-03-16T18:46:47.375Z,131.40
2023-03-16T18:49:34.270Z,37.30
2023-03-16T18:52:01.782Z,45.30
2023-03-16T18:54:30.853Z,45.50
2023-03-16T18:57:01.276Z,30.90
2023-03-16T18:59:28.276Z,26.40
2023-03-16T19:01:55.527Z,28.60
2023-03-16T19:04:26.029Z,34.30
2023-03-16T19:06:54.897Z,131.50
2023-03-16T19:09:30.631Z,42.40
2023-03-16T19:11:59.170Z,45.40
2023-03-16T19:14:31.070Z,32.80
2023-03-16T19:16:58.245Z,36.00
2023-03-16T19:19:25.880Z,33.60
2023-03-16T19:21:56.860Z,31.10
2023-03-16T19:24:34.788Z,29.90
2023-03-16T19:27:02.238Z,39.90
2023-03-16T19:29:34.676Z,40.80
2023-03-16T19:32:02.396Z,33.50
2023-03-16T19:34:29.888Z,38.80
2023-03-16T19:36:56.810Z,50.20
2023-03-16T19:39:23.825Z,33.50
2023-03-16T19:41:57.810Z,35.30
2023-03-16T19:44:27.528Z,43.70
2023-03-16T19:49:26.100Z,48.70
2023-03-16T19:51:55.164Z,44.80
2023-03-16T19:54:22.285Z,44.60
2023-03-16T19:56:50.046Z,75.30
2023-03-16T19:59:17.809Z,118.60
2023-03-16T20:01:45.345Z,68.80
2023-03-16T20:04:23.991Z,66.80
2023-03-16T20:06:51.506Z,78.70
2023-03-16T20:09:18.648Z,91.20
2023-03-16T20:11:46.199Z,94.50
2023-03-16T20:14:24.041Z,123.80
2023-03-16T20:16:51.286Z,136.10
2023-03-16T20:19:19.742Z,93.90
2023-03-16T20:21:48.773Z,91.30
2023-03-16T20:24:24.831Z,84.20
2023-03-16T20:26:54.143Z,83.40
2023-03-16T20:29:30.416Z,92.30
2023-03-16T20:31:58.155Z,89.10
2023-03-16T20:34:28.552Z,86.50
2023-03-16T20:36:56.305Z,90.30
2023-03-16T20:39:23.226Z,91.10
2023-03-16T20:41:51.126Z,96.10
2023-03-16T20:44:21.627Z,127.50
2023-03-16T20:46:51.450Z,107.80
2023-03-16T20:49:25.619Z,100.10
2023-03-16T20:51:53.495Z,101.20
2023-03-16T20:54:21.211Z,105.90
2023-03-16T20:56:49.519Z,107.40
2023-03-16T20:59:25.010Z,93.90
2023-03-16T21:01:55.947Z,102.20
2023-03-16T21:04:35.283Z,132.60
2023-03-16T21:07:02.635Z,166.90
2023-03-16T21:09:32.832Z,134.60
2023-03-16T21:12:00.232Z,132.80
2023-03-16T21:14:27.639Z,145.90
2023-03-16T21:16:54.932Z,176.10
2023-03-16T21:19:23.547Z,195.90
2023-03-16T21:21:51.163Z,163.00
2023-03-16T21:24:18.521Z,177.50
2023-03-16T21:26:47.790Z,187.60
2023-03-16T21:29:18.871Z,232.70
2023-03-16T21:31:46.705Z,161.10
2023-03-16T21:34:33.440Z,159.60
2023-03-16T21:37:00.687Z,157.60
2023-03-16T21:39:28.764Z,156.30
2023-03-16T21:41:56.609Z,145.30
2023-03-16T21:44:24.084Z,145.90
2023-03-16T21:46:51.663Z,151.10
2023-03-16T21:49:20.433Z,146.30
2023-03-16T21:51:49.669Z,137.30
2023-03-16T21:54:18.643Z,131.90
2023-03-16T21:56:48.459Z,141.60
2023-03-16T21:59:15.843Z,146.20
2023-03-16T22:01:58.680Z,158.10
2023-03-16T22:04:28.828Z,145.80
2023-03-16T22:06:56.314Z,156.50
2023-03-16T22:09:25.165Z,152.00
2023-03-16T22:11:52.198Z,140.40
2023-03-16T22:14:19.750Z,138.90
2023-03-16T22:16:47.076Z,133.10
2023-03-16T22:19:16.087Z,132.40
2023-03-16T22:21:44.786Z,133.60
2023-03-16T22:24:22.025Z,143.80
2023-03-16T22:26:50.338Z,135.20
2023-03-16T22:29:24.209Z,137.40
2023-03-16T22:31:55.591Z,129.70
2023-03-16T22:34:37.052Z,127.30
2023-03-16T22:37:05.850Z,130.70
2023-03-16T22:39:38.358Z,124.20
2023-03-16T22:42:38.327Z,129.30
2023-03-16T22:45:28.043Z,130.90
2023-03-16T22:47:57.002Z,133.80
2023-03-16T22:50:27.808Z,139.60
2023-03-16T22:53:01.527Z,130.80
2023-03-16T22:55:36.988Z,126.00
2023-03-16T22:58:18.593Z,120.20
2023-03-16T23:00:46.470Z,123.90
2023-03-16T23:03:19.973Z,120.40
2023-03-16T23:05:47.531Z,114.70
2023-03-16T23:08:23.892Z,104.70
2023-03-16T23:10:52.214Z,106.80
2023-03-16T23:13:24.999Z,91.00
2023-03-16T23:15:53.776Z,90.20
2023-03-16T23:18:24.627Z,89.90
2023-03-16T23:20:53.209Z,87.00
2023-03-16T23:23:20.573Z,87.30
2023-03-16T23:25:48.146Z,84.70
2023-03-16T23:28:23.316Z,90.90
2023-03-16T23:30:50.870Z,89.30
2023-03-16T23:33:18.253Z,90.00
2023-03-16T23:35:47.153Z,92.40
2023-03-16T23:38:14.276Z,94.30
2023-03-16T23:40:42.073Z,92.30
2023-03-16T23:43:09.885Z,94.80
2023-03-16T23:45:42.851Z,92.30
2023-03-16T23:48:20.401Z,92.20
2023-03-16T23:50:54.765Z,88.90
2023-03-16T23:53:21.953Z,92.40
2023-03-16T23:55:49.387Z,86.90
2023-03-16T23:58:17.591Z,84.40
